ホバート の空港の天気 - METARとTAF

ホバート国際空港 ( YMHB / HBA ) - オーストラリア タスマニア州、Cambridge
飛行場実況気象(Metar)
観測時間05/28 21:00 AEST (05/28 11:00 UTC)
風向・風速北西 2m/s
視程10km以上
天気現象
全天の4割程度の雲 雲底高度 1220m
全天の4割程度の雲 雲底高度 9140m
気温8℃
湿度87%
気圧1011hPa
METARYMHB 281100Z 32003KT 9999 SCT040 SCT300 08/06 Q1011 RF00.0/000.0
過去の天気等 Google飛行場航空写真 Wunderground天気予報

過去48時間のMETAR

飛行場予報(TAF)
発表時間: 5/28 18:16 AEST (5/28 08:16 UTC)
予報対象時間: 28日19時 AEST ~ 29日16時 AEST
風向・風速北北西 3m/s
視程10km以上
少しの雲 雲底高度 910m
29日2時 AEST から
風向・風速西北西 3m/s
視程10km以上
少しの雲 雲底高度 610m
全天の4割程度の雲 雲底高度 760m
29日14時 AEST から
風向・風速南南東 3m/s
視程10km以上
少しの雲 雲底高度 910m
TAF YMHB 280816Z 2809/2906 33005KT 9999 FEW030
FM281600 30005KT 9999 FEW020 SCT025
FM290400 15005KT 9999 FEW030